Time;durP1;ratioP1;P1;durP2;ratioP2;P2;SDS_P1;SDS_P2;PMS_P1;PMS_P2;Temp;Humidity;BMP_temperature;BMP_pressure;BME280_temperature;BME280_humidity;BME280_pressure;Samples;Min_cycle;Max_cycle;Signal;HPM_P1;HPM_P2
2024/04/23 00:00:21;;;;;;;6.50;6.00;;;;;;;;;;6696338;26;20015;-72
2024/04/23 00:03:24;;;;;;;5.82;5.15;;;;;;;;;;6729976;26;20495;-72
2024/04/23 00:06:27;;;;;;;5.95;5.45;;;;;;;;;;6732960;26;20020;-72
2024/04/23 00:09:29;;;;;;;5.47;4.97;;;;;;;;;;6762941;26;20014;-73
2024/04/23 00:12:33;;;;;;;5.07;4.68;;;;;;;;;;6717974;26;20038;-72
2024/04/23 00:15:35;;;;;;;4.22;3.83;;;;;;;;;;6735908;26;20003;-72
2024/04/23 00:18:38;;;;;;;3.65;1.70;;;;;;;;;;6713476;26;20477;-71
2024/04/23 00:21:41;;;;;;;4.78;4.38;;;;;;;;;;6770590;26;20002;-73
2024/04/23 00:24:44;;;;;;;4.22;3.78;;;;;;;;;;6738645;26;20484;-73
2024/04/23 00:27:47;;;;;;;5.72;4.20;;;;;;;;;;6770162;26;20002;-73
2024/04/23 00:30:49;;;;;;;6.22;4.15;;;;;;;;;;6733151;26;21411;-72
2024/04/23 00:33:52;;;;;;;5.82;4.25;;;;;;;;;;6762331;26;20745;-73
2024/04/23 00:36:56;;;;;;;4.40;4.00;;;;;;;;;;6740107;26;20047;-72
2024/04/23 00:39:58;;;;;;;4.72;4.00;;;;;;;;;;6732760;26;20071;-73
2024/04/23 00:43:01;;;;;;;4.80;4.22;;;;;;;;;;6752857;26;20070;-73
2024/04/23 00:46:05;;;;;;;5.00;3.72;;;;;;;;;;6727191;26;19994;-73
2024/04/23 00:49:10;;;;;;;5.75;3.85;;;;;;;;;;6704518;26;20003;-72
2024/04/23 00:52:13;;;;;;;5.50;4.13;;;;;;;;;;6735580;26;20021;-72
2024/04/23 00:55:17;;;;;;;6.40;4.32;;;;;;;;;;6758333;26;20003;-71
2024/04/23 00:58:21;;;;;;;5.65;4.68;;;;;;;;;;6762456;26;19998;-73
2024/04/23 01:01:23;;;;;;;4.95;4.55;;;;;;;;;;6723836;26;20629;-73
2024/04/23 01:04:26;;;;;;;5.32;4.93;;;;;;;;;;6734805;26;20014;-73
2024/04/23 01:07:29;;;;;;;7.03;4.70;;;;;;;;;;6703163;26;20014;-73
2024/04/23 01:10:32;;;;;;;4.35;3.95;;;;;;;;;;6727247;26;20006;-73
2024/04/23 01:13:36;;;;;;;4.15;3.75;;;;;;;;;;6733018;26;20039;-72
2024/04/23 01:16:41;;;;;;;4.75;4.28;;;;;;;;;;6715630;26;20065;-73
2024/04/23 01:19:50;;;;;;;3.03;2.17;;;;;;;;;;6768630;26;20376;-73
2024/04/23 01:23:06;;;;;;;4.40;4.00;;;;;;;;;;6738326;26;20477;-73
2024/04/23 01:26:09;;;;;;;7.30;6.80;;;;;;;;;;6722685;26;20006;-73
2024/04/23 01:29:12;;;;;;;5.20;4.70;;;;;;;;;;6692448;26;20003;-73
2024/04/23 01:32:16;;;;;;;5.22;4.82;;;;;;;;;;6719397;26;20471;-72
2024/04/23 01:35:19;;;;;;;5.15;4.65;;;;;;;;;;6729484;26;20034;-72
2024/04/23 01:38:22;;;;;;;7.07;5.22;;;;;;;;;;6732494;26;19999;-72
2024/04/23 01:41:25;;;;;;;4.90;4.40;;;;;;;;;;6735700;26;20005;-72
2024/04/23 01:44:29;;;;;;;5.30;4.80;;;;;;;;;;6720584;26;19998;-72
2024/04/23 01:47:32;;;;;;;6.32;4.47;;;;;;;;;;6760798;26;20749;-72
2024/04/23 01:50:35;;;;;;;4.90;4.32;;;;;;;;;;6717320;26;20007;-73
2024/04/23 01:53:37;;;;;;;4.68;4.18;;;;;;;;;;6735400;26;20003;-72
2024/04/23 01:56:41;;;;;;;5.82;5.30;;;;;;;;;;6766822;26;20930;-72
2024/04/23 01:59:47;;;;;;;5.22;4.82;;;;;;;;;;6752721;26;20009;-72
2024/04/23 02:02:51;;;;;;;5.13;4.68;;;;;;;;;;6709039;26;20003;-72
2024/04/23 02:05:55;;;;;;;5.97;5.38;;;;;;;;;;6728177;26;20003;-72
2024/04/23 02:08:59;;;;;;;6.35;5.85;;;;;;;;;;6759693;26;20003;-72
2024/04/23 02:12:05;;;;;;;5.00;4.25;;;;;;;;;;6714369;26;20002;-73
2024/04/23 02:15:08;;;;;;;4.95;4.35;;;;;;;;;;6763325;26;20015;-72
2024/04/23 02:18:10;;;;;;;5.55;4.07;;;;;;;;;;6701411;26;20005;-72
2024/04/23 02:21:13;;;;;;;5.38;4.88;;;;;;;;;;6765843;26;19999;-73
2024/04/23 02:24:15;;;;;;;5.32;4.82;;;;;;;;;;6696947;26;20007;-72
2024/04/23 02:27:18;;;;;;;5.07;4.60;;;;;;;;;;6756072;26;19998;-73
2024/04/23 02:30:21;;;;;;;4.60;4.15;;;;;;;;;;6718233;26;20026;-72
2024/04/23 02:33:24;;;;;;;5.43;4.93;;;;;;;;;;6764842;26;20010;-73
2024/04/23 02:36:29;;;;;;;6.03;5.43;;;;;;;;;;6711790;26;20002;-72
2024/04/23 02:39:31;;;;;;;5.25;4.75;;;;;;;;;;6731137;26;20006;-72
2024/04/23 02:42:34;;;;;;;5.97;5.25;;;;;;;;;;6648689;26;20003;-72
2024/04/23 02:45:37;;;;;;;7.53;6.03;;;;;;;;;;6717074;26;20478;-71
2024/04/23 02:48:40;;;;;;;6.10;5.57;;;;;;;;;;6743839;26;20013;-72
2024/04/23 02:51:50;;;;;;;9.48;6.32;;;;;;;;;;6725512;26;20014;-72
2024/04/23 02:54:53;;;;;;;4.57;3.97;;;;;;;;;;6710370;26;19999;-72
2024/04/23 02:57:56;;;;;;;4.70;4.30;;;;;;;;;;6696699;26;20018;-72
2024/04/23 03:00:58;;;;;;;4.95;4.55;;;;;;;;;;6714978;26;19998;-72
2024/04/23 03:04:01;;;;;;;8.02;7.25;;;;;;;;;;6690042;26;20589;-73
2024/04/23 03:07:03;;;;;;;6.43;5.35;;;;;;;;;;6683017;26;20009;-72
2024/04/23 03:10:07;;;;;;;5.93;5.32;;;;;;;;;;6762958;26;20002;-73
2024/04/23 03:13:09;;;;;;;4.82;4.43;;;;;;;;;;6774514;26;20038;-73
2024/04/23 03:16:12;;;;;;;6.75;6.25;;;;;;;;;;6728739;26;20055;-72
2024/04/23 03:19:14;;;;;;;3.95;2.70;;;;;;;;;;6690609;26;20576;-72
2024/04/23 03:22:17;;;;;;;6.72;3.75;;;;;;;;;;6743231;26;20581;-73
2024/04/23 03:25:20;;;;;;;6.60;5.28;;;;;;;;;;6719656;26;19995;-72
2024/04/23 03:28:23;;;;;;;8.10;6.38;;;;;;;;;;6735386;26;20014;-72
2024/04/23 03:31:26;;;;;;;3.13;1.95;;;;;;;;;;6725889;26;20524;-72
2024/04/23 03:34:28;;;;;;;6.75;4.15;;;;;;;;;;6757928;26;20046;-73
2024/04/23 03:37:31;;;;;;;4.25;3.70;;;;;;;;;;6760246;26;20038;-73
2024/04/23 03:40:33;;;;;;;4.47;4.07;;;;;;;;;;6757183;26;19995;-72
2024/04/23 03:43:36;;;;;;;6.25;4.97;;;;;;;;;;6727436;26;20116;-72
2024/04/23 03:46:39;;;;;;;6.30;5.68;;;;;;;;;;6765523;26;20003;-72
2024/04/23 03:49:42;;;;;;;4.60;4.15;;;;;;;;;;6702054;26;20006;-72
2024/04/23 03:52:44;;;;;;;7.82;7.22;;;;;;;;;;6719455;26;20003;-71
2024/04/23 03:55:47;;;;;;;6.97;5.00;;;;;;;;;;6701799;26;20011;-73
2024/04/23 03:58:50;;;;;;;5.38;3.00;;;;;;;;;;6775092;26;20693;-72
2024/04/23 04:06:03;;;;;;;4.82;4.35;;;;;;;;;;6757408;26;20010;-73
2024/04/23 04:08:41;;;;;;;5.38;4.88;;;;;;;;;;6711342;26;20601;-72
2024/04/23 04:11:43;;;;;;;6.20;4.72;;;;;;;;;;6747230;26;20075;-72
2024/04/23 04:14:46;;;;;;;6.18;4.70;;;;;;;;;;6730590;26;19994;-72
2024/04/23 04:17:48;;;;;;;4.80;4.32;;;;;;;;;;6761369;26;20006;-72
2024/04/23 04:20:51;;;;;;;4.63;4.18;;;;;;;;;;6744750;26;19999;-73
2024/04/23 04:23:53;;;;;;;4.57;4.18;;;;;;;;;;6701899;26;20448;-73
2024/04/23 04:26:56;;;;;;;6.75;4.78;;;;;;;;;;6728986;26;20080;-72
2024/04/23 04:30:00;;;;;;;5.05;4.65;;;;;;;;;;6751617;26;20460;-72
2024/04/23 04:33:03;;;;;;;4.88;4.38;;;;;;;;;;6729623;26;20008;-72
2024/04/23 04:36:06;;;;;;;6.85;6.25;;;;;;;;;;6708918;26;20079;-72
2024/04/23 04:39:09;;;;;;;4.75;4.25;;;;;;;;;;6730800;26;20003;-72
2024/04/23 04:42:12;;;;;;;5.50;5.00;;;;;;;;;;6723627;26;20021;-72
2024/04/23 04:45:14;;;;;;;5.40;4.85;;;;;;;;;;6704852;26;20823;-73
2024/04/23 04:48:17;;;;;;;5.00;4.50;;;;;;;;;;6703837;26;19998;-73
2024/04/23 04:51:20;;;;;;;7.32;5.18;;;;;;;;;;6712597;26;19999;-72
2024/04/23 04:54:22;;;;;;;4.30;3.78;;;;;;;;;;6738412;26;20011;-72
2024/04/23 04:57:25;;;;;;;5.47;4.97;;;;;;;;;;6762224;26;20013;-72
2024/04/23 05:00:28;;;;;;;5.70;5.20;;;;;;;;;;6735730;26;20006;-71
2024/04/23 05:03:31;;;;;;;5.82;5.22;;;;;;;;;;6716193;26;20006;-72
2024/04/23 05:06:33;;;;;;;6.07;5.20;;;;;;;;;;6743257;26;20017;-73
2024/04/23 05:09:36;;;;;;;8.57;7.40;;;;;;;;;;6757335;26;20010;-71
2024/04/23 05:12:38;;;;;;;8.63;7.15;;;;;;;;;;6734880;26;20069;-73
2024/04/23 05:15:43;;;;;;;11.57;10.27;;;;;;;;;;6737452;26;20002;-72
2024/04/23 05:18:46;;;;;;;14.70;10.10;;;;;;;;;;6758084;26;20050;-72
2024/04/23 05:21:48;;;;;;;16.35;14.27;;;;;;;;;;6700560;26;20011;-71
2024/04/23 05:24:51;;;;;;;13.48;9.93;;;;;;;;;;6727761;26;20021;-73
2024/04/23 05:27:54;;;;;;;14.30;10.75;;;;;;;;;;6730260;26;20020;-73
2024/04/23 05:34:18;;;;;;;8.60;7.70;;;;;;;;;;6764522;26;20084;-73
2024/04/23 05:37:20;;;;;;;9.02;8.13;;;;;;;;;;6729552;26;20027;-73
2024/04/23 05:40:23;;;;;;;14.45;9.60;;;;;;;;;;6739775;26;20613;-72
2024/04/23 05:43:26;;;;;;;9.07;7.97;;;;;;;;;;6699244;26;20006;-72
2024/04/23 05:46:28;;;;;;;10.88;9.98;;;;;;;;;;6739995;26;20061;-72
2024/04/23 05:50:09;;;;;;;7.45;6.75;;;;;;;;;;6730132;26;20006;-72
2024/04/23 05:54:08;;;;;;;7.10;6.15;;;;;;;;;;6776406;26;20017;-72
2024/04/23 05:57:29;;;;;;;10.43;9.35;;;;;;;;;;6734484;26;20072;-72
2024/04/23 06:00:32;;;;;;;8.18;7.38;;;;;;;;;;6734907;26;20035;-72
2024/04/23 06:03:34;;;;;;;8.07;6.70;;;;;;;;;;6715524;26;20511;-71
2024/04/23 06:06:37;;;;;;;12.73;8.10;;;;;;;;;;6732320;26;20104;-71
2024/04/23 06:09:39;;;;;;;15.82;10.48;;;;;;;;;;6745747;26;20064;-72
2024/04/23 06:12:42;;;;;;;14.40;12.32;;;;;;;;;;6739297;26;20018;-72
2024/04/23 06:15:46;;;;;;;16.15;13.00;;;;;;;;;;6692151;26;20003;-72
2024/04/23 06:18:49;;;;;;;11.70;10.02;;;;;;;;;;6732413;26;20021;-71
2024/04/23 06:21:52;;;;;;;18.35;14.88;;;;;;;;;;6762958;26;20738;-71
2024/04/23 06:24:55;;;;;;;10.77;7.75;;;;;;;;;;6757008;26;20467;-72
2024/04/23 06:27:58;;;;;;;11.43;10.40;;;;;;;;;;6704291;26;20452;-72
2024/04/23 06:31:02;;;;;;;15.07;12.25;;;;;;;;;;6727497;26;20824;-72
2024/04/23 06:34:04;;;;;;;13.75;12.35;;;;;;;;;;6730785;26;20013;-72
2024/04/23 06:37:07;;;;;;;11.45;10.35;;;;;;;;;;6720258;26;19999;-72
2024/04/23 06:40:10;;;;;;;12.23;11.02;;;;;;;;;;6700280;26;20003;-72
2024/04/23 06:43:14;;;;;;;16.52;12.27;;;;;;;;;;6731279;26;20471;-72
2024/04/23 06:46:17;;;;;;;12.23;11.13;;;;;;;;;;6725077;26;20003;-72
2024/04/23 06:49:20;;;;;;;14.55;12.57;;;;;;;;;;6719735;26;20014;-72
2024/04/23 06:52:23;;;;;;;14.88;12.00;;;;;;;;;;6769103;26;20006;-72
2024/04/23 06:55:25;;;;;;;14.23;12.25;;;;;;;;;;6697414;26;20006;-73
2024/04/23 06:58:28;;;;;;;13.35;11.90;;;;;;;;;;6773853;26;20006;-73
2024/04/23 07:01:34;;;;;;;15.77;11.55;;;;;;;;;;6729804;26;20495;-72
2024/04/23 07:04:36;;;;;;;11.95;9.43;;;;;;;;;;6709017;26;20042;-72
2024/04/23 07:07:39;;;;;;;14.07;12.35;;;;;;;;;;6785668;26;20005;-72
2024/04/23 07:10:42;;;;;;;13.95;11.90;;;;;;;;;;6738075;26;20039;-72
2024/04/23 07:13:46;;;;;;;13.20;10.60;;;;;;;;;;6719601;26;20103;-72
2024/04/23 07:16:48;;;;;;;12.23;11.02;;;;;;;;;;6722649;26;20017;-76
2024/04/23 07:19:51;;;;;;;13.75;11.68;;;;;;;;;;6685622;26;20006;-73
2024/04/23 07:22:54;;;;;;;14.10;12.55;;;;;;;;;;6707262;26;20003;-73
2024/04/23 07:25:56;;;;;;;14.25;10.80;;;;;;;;;;6737375;26;19998;-73
2024/04/23 07:28:59;;;;;;;14.07;12.63;;;;;;;;;;6669715;26;20006;-73
2024/04/23 07:32:02;;;;;;;13.38;11.13;;;;;;;;;;6778162;26;20046;-73
2024/04/23 07:35:04;;;;;;;13.80;10.85;;;;;;;;;;6683945;26;20003;-74
2024/04/23 07:38:12;;;;;;;12.25;9.55;;;;;;;;;;6704247;26;20384;-73
2024/04/23 07:41:15;;;;;;;11.68;10.45;;;;;;;;;;6738610;26;20002;-74
2024/04/23 07:44:18;;;;;;;12.20;9.10;;;;;;;;;;6737802;26;20039;-74
2024/04/23 07:47:21;;;;;;;11.77;10.63;;;;;;;;;;6738264;26;20003;-75
2024/04/23 07:50:24;;;;;;;10.82;9.75;;;;;;;;;;6734543;26;20002;-73
2024/04/23 07:53:27;;;;;;;11.48;10.27;;;;;;;;;;6745726;26;20014;-74
2024/04/23 07:56:30;;;;;;;10.82;9.57;;;;;;;;;;6699288;26;20017;-73
2024/04/23 07:59:32;;;;;;;10.65;9.70;;;;;;;;;;6694582;26;20025;-73
2024/04/23 08:02:35;;;;;;;9.13;7.90;;;;;;;;;;6691450;26;20015;-76
2024/04/23 08:05:38;;;;;;;9.10;7.75;;;;;;;;;;6726139;26;20017;-73
2024/04/23 08:08:40;;;;;;;7.38;6.70;;;;;;;;;;6764909;26;20003;-72
2024/04/23 08:11:43;;;;;;;9.55;8.65;;;;;;;;;;6767919;26;20013;-74
2024/04/23 08:14:46;;;;;;;9.20;8.30;;;;;;;;;;6733455;26;20055;-72
2024/04/23 08:17:48;;;;;;;8.68;7.60;;;;;;;;;;6760376;26;20050;-73
2024/04/23 08:20:51;;;;;;;8.18;7.43;;;;;;;;;;6730464;26;19998;-73
2024/04/23 08:23:54;;;;;;;10.23;6.07;;;;;;;;;;6755602;26;20380;-73
2024/04/23 08:26:57;;;;;;;9.27;7.20;;;;;;;;;;6741461;26;20013;-73
2024/04/23 08:30:00;;;;;;;7.50;6.03;;;;;;;;;;6758408;26;19999;-73
2024/04/23 08:33:02;;;;;;;6.03;5.53;;;;;;;;;;6697546;26;20009;-73
2024/04/23 08:36:05;;;;;;;6.22;5.72;;;;;;;;;;6771096;26;20038;-73
2024/04/23 08:39:08;;;;;;;6.53;6.03;;;;;;;;;;6767851;26;20050;-72
2024/04/23 08:42:12;;;;;;;6.32;5.72;;;;;;;;;;6740246;26;20022;-72
2024/04/23 08:45:15;;;;;;;6.63;4.72;;;;;;;;;;6755379;26;20012;-73
2024/04/23 08:48:17;;;;;;;5.35;4.72;;;;;;;;;;6709007;26;19999;-73
2024/04/23 08:51:21;;;;;;;5.85;5.00;;;;;;;;;;6666518;26;20011;-74
2024/04/23 08:54:24;;;;;;;4.85;3.85;;;;;;;;;;6708919;26;20068;-73
2024/04/23 08:57:26;;;;;;;5.93;5.43;;;;;;;;;;6720462;26;20031;-73
2024/04/23 09:00:29;;;;;;;6.13;5.57;;;;;;;;;;6723990;26;20072;-73
2024/04/23 09:03:45;;;;;;;4.85;3.47;;;;;;;;;;6698475;26;20420;-72
2024/04/23 09:06:48;;;;;;;5.65;5.15;;;;;;;;;;6737865;26;19998;-73
2024/04/23 09:09:51;;;;;;;8.10;6.38;;;;;;;;;;6715979;26;20761;-73
2024/04/23 09:12:53;;;;;;;6.03;5.43;;;;;;;;;;6692776;26;20021;-73
2024/04/23 09:15:58;;;;;;;5.78;5.20;;;;;;;;;;6712938;26;20009;-72
2024/04/23 09:19:00;;;;;;;6.82;5.80;;;;;;;;;;6693166;26;20003;-72
2024/04/23 09:22:04;;;;;;;5.25;4.85;;;;;;;;;;6726160;26;20056;-73
2024/04/23 09:25:10;;;;;;;4.57;4.18;;;;;;;;;;6769860;26;20471;-73
2024/04/23 09:28:23;;;;;;;3.55;3.25;;;;;;;;;;6732475;26;20352;-73
2024/04/23 09:31:26;;;;;;;3.90;3.60;;;;;;;;;;6789368;26;20002;-72
2024/04/23 09:34:31;;;;;;;7.70;3.88;;;;;;;;;;6772909;26;20868;-72
2024/04/23 09:37:49;;;;;;;6.13;5.55;;;;;;;;;;6725405;26;20021;-72
2024/04/23 09:40:51;;;;;;;4.32;3.00;;;;;;;;;;6777279;26;20861;-72
2024/04/23 09:43:55;;;;;;;4.43;4.03;;;;;;;;;;6723804;26;20002;-72
2024/04/23 09:46:58;;;;;;;4.72;4.32;;;;;;;;;;6741548;26;20085;-72
2024/04/23 09:50:01;;;;;;;4.38;3.97;;;;;;;;;;6709879;26;19995;-72
2024/04/23 09:53:07;;;;;;;2.65;2.05;;;;;;;;;;6710557;26;20483;-73
2024/04/23 09:56:12;;;;;;;3.30;2.97;;;;;;;;;;6729960;26;20471;-72
2024/04/23 09:59:16;;;;;;;4.00;3.60;;;;;;;;;;6772339;26;20009;-72
2024/04/23 10:02:27;;;;;;;3.55;3.25;;;;;;;;;;6759304;26;20075;-73
2024/04/23 10:05:31;;;;;;;3.28;2.90;;;;;;;;;;6746019;26;20073;-72
2024/04/23 10:08:55;;;;;;;4.18;3.88;;;;;;;;;;6772509;26;20017;-73
2024/04/23 10:12:14;;;;;;;4.43;3.72;;;;;;;;;;6687035;26;20435;-73
2024/04/23 10:15:27;;;;;;;5.32;4.80;;;;;;;;;;6741996;26;20002;-72
2024/04/23 10:18:34;;;;;;;4.80;3.38;;;;;;;;;;6673745;26;20017;-73
2024/04/23 10:21:42;;;;;;;5.40;5.00;;;;;;;;;;6743538;26;20107;-71
2024/04/23 10:24:45;;;;;;;3.67;3.03;;;;;;;;;;6751165;26;20426;-72
2024/04/23 10:27:48;;;;;;;2.92;2.17;;;;;;;;;;6710012;26;20499;-72
2024/04/23 10:30:51;;;;;;;4.13;3.70;;;;;;;;;;6704117;26;20010;-72
2024/04/23 10:33:54;;;;;;;5.75;5.30;;;;;;;;;;6727862;26;20047;-72
2024/04/23 10:36:59;;;;;;;8.88;5.38;;;;;;;;;;6762130;26;20014;-72
2024/04/23 10:40:03;;;;;;;5.57;5.07;;;;;;;;;;6753365;26;20058;-71
2024/04/23 10:43:05;;;;;;;3.53;3.22;;;;;;;;;;6725374;26;20487;-71
2024/04/23 10:46:08;;;;;;;6.97;6.47;;;;;;;;;;6708377;26;20009;-72
2024/04/23 10:49:16;;;;;;;4.63;4.22;;;;;;;;;;6693956;26;20022;-71
2024/04/23 10:52:20;;;;;;;3.03;2.72;;;;;;;;;;6718727;26;20007;-72
2024/04/23 10:55:27;;;;;;;4.38;3.35;;;;;;;;;;6709413;26;20033;-72
2024/04/23 10:58:35;;;;;;;5.28;4.72;;;;;;;;;;6698411;26;20125;-72
2024/04/23 11:01:51;;;;;;;5.53;3.25;;;;;;;;;;6763005;26;19999;-72
2024/04/23 11:04:53;;;;;;;5.93;5.30;;;;;;;;;;6695507;26;20490;-73
2024/04/23 11:08:06;;;;;;;4.45;4.05;;;;;;;;;;6728360;26;20015;-72
2024/04/23 11:11:10;;;;;;;5.28;3.67;;;;;;;;;;6731436;26;20053;-71
2024/04/23 11:14:14;;;;;;;4.72;4.32;;;;;;;;;;6724350;26;20003;-71
2024/04/23 11:17:18;;;;;;;5.60;2.30;;;;;;;;;;6745377;26;20006;-72
2024/04/23 11:20:21;;;;;;;3.05;2.75;;;;;;;;;;6728285;26;20042;-71
2024/04/23 11:23:25;;;;;;;3.60;3.40;;;;;;;;;;6751162;26;19995;-71
2024/04/23 11:26:29;;;;;;;3.25;2.08;;;;;;;;;;6751604;26;20041;-73
2024/04/23 11:29:32;;;;;;;2.72;2.53;;;;;;;;;;6708337;26;20020;-70
2024/04/23 11:32:35;;;;;;;3.80;3.50;;;;;;;;;;6769843;26;20894;-72
2024/04/23 11:35:38;;;;;;;2.88;2.55;;;;;;;;;;6696001;26;20017;-72
2024/04/23 11:38:45;;;;;;;5.32;4.93;;;;;;;;;;6733175;26;20009;-73
2024/04/23 11:41:49;;;;;;;3.72;3.42;;;;;;;;;;6763561;26;20003;-72
2024/04/23 11:44:55;;;;;;;3.85;3.55;;;;;;;;;;6728851;26;21028;-72
2024/04/23 11:48:00;;;;;;;4.72;1.25;;;;;;;;;;6692521;26;20708;-71
2024/04/23 11:51:02;;;;;;;3.70;2.90;;;;;;;;;;6753160;26;20078;-72
2024/04/23 11:54:05;;;;;;;4.30;3.03;;;;;;;;;;6757797;26;20007;-71
2024/04/23 11:57:08;;;;;;;3.28;3.00;;;;;;;;;;6709144;26;20042;-71
2024/04/23 12:00:11;;;;;;;2.65;2.38;;;;;;;;;;6697518;26;19995;-71
2024/04/23 12:03:14;;;;;;;3.75;3.45;;;;;;;;;;6711396;26;20088;-72
2024/04/23 12:06:17;;;;;;;4.45;3.17;;;;;;;;;;6757388;26;20030;-71
2024/04/23 12:09:22;;;;;;;3.30;2.97;;;;;;;;;;6695647;26;20014;-72
2024/04/23 12:12:26;;;;;;;4.20;3.08;;;;;;;;;;6763630;26;20083;-72
2024/04/23 12:15:34;;;;;;;4.18;3.10;;;;;;;;;;6765014;26;20010;-71
2024/04/23 12:18:40;;;;;;;3.30;2.97;;;;;;;;;;6734383;26;19995;-71
2024/04/23 12:21:43;;;;;;;4.40;3.85;;;;;;;;;;6723464;26;20014;-72
2024/04/23 12:24:46;;;;;;;4.25;3.47;;;;;;;;;;6733253;26;20006;-72
2024/04/23 12:27:52;;;;;;;1.77;1.10;;;;;;;;;;6735901;26;20993;-72
2024/04/23 12:30:55;;;;;;;6.47;6.07;;;;;;;;;;6713470;26;20088;-72
2024/04/23 12:33:58;;;;;;;2.92;2.60;;;;;;;;;;6707662;26;20010;-71
2024/04/23 12:37:00;;;;;;;3.00;2.60;;;;;;;;;;6756681;26;20021;-72
2024/04/23 12:40:03;;;;;;;2.42;2.22;;;;;;;;;;6721185;26;20002;-72
2024/04/23 12:43:15;;;;;;;3.88;3.00;;;;;;;;;;6759871;26;20069;-71
2024/04/23 12:46:19;;;;;;;3.42;3.15;;;;;;;;;;6665074;26;20109;-72
2024/04/23 12:49:21;;;;;;;4.15;3.85;;;;;;;;;;6756832;26;20010;-73
2024/04/23 12:52:24;;;;;;;2.88;2.67;;;;;;;;;;6741811;26;20609;-72
2024/04/23 12:55:28;;;;;;;2.55;2.13;;;;;;;;;;6777000;26;19998;-72
2024/04/23 12:58:36;;;;;;;3.17;2.95;;;;;;;;;;6735856;26;20043;-72
2024/04/23 13:01:38;;;;;;;3.30;3.00;;;;;;;;;;6763075;26;19998;-72
2024/04/23 13:04:51;;;;;;;3.53;3.22;;;;;;;;;;6710673;26;20014;-73
2024/04/23 13:07:54;;;;;;;3.13;2.83;;;;;;;;;;6708420;26;19998;-73
2024/04/23 13:10:57;;;;;;;3.47;3.17;;;;;;;;;;6723431;26;20002;-72
2024/04/23 13:14:00;;;;;;;4.18;3.25;;;;;;;;;;6723490;26;20002;-72
2024/04/23 13:17:03;;;;;;;2.95;2.72;;;;;;;;;;6751840;26;20876;-72
2024/04/23 13:20:06;;;;;;;2.85;2.65;;;;;;;;;;6741758;26;20022;-72
2024/04/23 13:23:09;;;;;;;5.05;2.67;;;;;;;;;;6716506;26;20010;-74
2024/04/23 13:26:13;;;;;;;4.45;4.05;;;;;;;;;;6720475;26;20019;-74
2024/04/23 13:29:15;;;;;;;3.38;3.17;;;;;;;;;;6754516;26;20014;-71
2024/04/23 13:32:18;;;;;;;2.25;2.05;;;;;;;;;;6714243;26;20734;-72
2024/04/23 13:35:23;;;;;;;4.95;3.33;;;;;;;;;;6754530;26;20079;-72
2024/04/23 13:38:27;;;;;;;3.45;2.70;;;;;;;;;;6720257;26;20399;-73
2024/04/23 13:41:30;;;;;;;3.20;3.00;;;;;;;;;;6718859;26;20003;-72
2024/04/23 13:44:33;;;;;;;4.45;4.00;;;;;;;;;;6753974;26;20038;-73
2024/04/23 13:47:38;;;;;;;3.00;2.80;;;;;;;;;;6721679;26;20007;-73
2024/04/23 13:50:41;;;;;;;;;;;;;;;;;;6728079;26;20240;-72
2024/04/23 13:53:44;;;;;;;4.93;4.53;;;;;;;;;;6756745;26;19935;-71
2024/04/23 13:56:47;;;;;;;3.63;3.33;;;;;;;;;;6718576;26;20002;-72
2024/04/23 13:59:51;;;;;;;4.25;3.75;;;;;;;;;;6719516;26;20022;-72
2024/04/23 14:02:53;;;;;;;4.57;4.18;;;;;;;;;;6698580;26;20036;-71
2024/04/23 14:05:56;;;;;;;5.38;2.90;;;;;;;;;;6768665;26;20042;-72
2024/04/23 14:08:58;;;;;;;4.40;3.58;;;;;;;;;;6765395;26;20540;-72
2024/04/23 14:12:01;;;;;;;4.35;3.53;;;;;;;;;;6728339;26;19998;-73
2024/04/23 14:15:04;;;;;;;3.90;3.53;;;;;;;;;;6762629;26;20070;-72
2024/04/23 14:18:07;;;;;;;4.05;3.65;;;;;;;;;;6731117;26;20779;-72
2024/04/23 14:21:10;;;;;;;3.53;3.22;;;;;;;;;;6705854;26;20004;-71
2024/04/23 14:24:12;;;;;;;5.35;3.70;;;;;;;;;;6726226;26;19999;-71
2024/04/23 14:27:15;;;;;;;4.60;2.85;;;;;;;;;;6755766;26;20370;-71
2024/04/23 14:30:18;;;;;;;3.20;1.95;;;;;;;;;;6758030;26;20889;-71
2024/04/23 14:33:20;;;;;;;6.65;3.47;;;;;;;;;;6667815;26;20013;-71
2024/04/23 14:36:23;;;;;;;6.30;4.22;;;;;;;;;;6724842;26;20006;-71
2024/04/23 14:39:26;;;;;;;6.38;4.15;;;;;;;;;;6734638;26;21896;-73
2024/04/23 14:42:28;;;;;;;5.05;4.55;;;;;;;;;;6728903;26;19998;-72
2024/04/23 14:45:33;;;;;;;8.30;4.85;;;;;;;;;;6718043;26;20021;-72
2024/04/23 14:48:35;;;;;;;6.53;4.40;;;;;;;;;;6750245;26;20022;-71
2024/04/23 14:51:38;;;;;;;5.50;4.97;;;;;;;;;;6700734;26;20888;-72
2024/04/23 14:54:41;;;;;;;5.28;4.05;;;;;;;;;;6738364;26;20073;-71
2024/04/23 14:57:43;;;;;;;7.13;6.30;;;;;;;;;;6750536;26;20566;-71
2024/04/23 15:00:46;;;;;;;6.53;4.95;;;;;;;;;;6758459;26;20070;-72
2024/04/23 15:03:48;;;;;;;6.55;5.53;;;;;;;;;;6750114;26;20914;-72
2024/04/23 15:06:53;;;;;;;8.73;5.32;;;;;;;;;;6722944;26;20006;-71
2024/04/23 15:09:55;;;;;;;6.25;2.83;;;;;;;;;;6724219;26;20371;-71
2024/04/23 15:12:58;;;;;;;8.82;6.90;;;;;;;;;;6719350;26;20055;-72
2024/04/23 15:16:05;;;;;;;8.25;5.50;;;;;;;;;;6699531;26;20006;-71
2024/04/23 15:19:14;;;;;;;8.60;6.22;;;;;;;;;;6722180;26;20038;-72
2024/04/23 15:22:17;;;;;;;10.07;5.28;;;;;;;;;;6750844;26;20026;-71
2024/04/23 15:25:26;;;;;;;10.55;6.68;;;;;;;;;;6699472;26;20035;-72
2024/04/23 15:28:30;;;;;;;10.45;6.75;;;;;;;;;;6682855;26;20002;-72
2024/04/23 15:31:32;;;;;;;8.48;6.70;;;;;;;;;;6729197;26;20002;-72
2024/04/23 15:34:43;;;;;;;10.57;8.10;;;;;;;;;;6716137;26;20010;-72
2024/04/23 15:37:46;;;;;;;8.82;6.32;;;;;;;;;;6727349;26;20582;-72
2024/04/23 15:40:48;;;;;;;8.15;6.28;;;;;;;;;;6762919;26;20792;-72
2024/04/23 15:43:51;;;;;;;10.98;8.40;;;;;;;;;;6738359;26;20651;-71
2024/04/23 15:46:54;;;;;;;8.68;7.20;;;;;;;;;;6685411;26;20492;-72
2024/04/23 15:49:57;;;;;;;11.57;8.52;;;;;;;;;;6734150;26;20018;-73
2024/04/23 15:53:00;;;;;;;10.95;8.50;;;;;;;;;;6712097;26;20044;-73
2024/04/23 15:56:04;;;;;;;11.38;8.90;;;;;;;;;;6719840;26;20088;-73
2024/04/23 15:59:07;;;;;;;10.25;7.85;;;;;;;;;;6727677;26;20918;-73
2024/04/23 16:02:09;;;;;;;11.38;8.10;;;;;;;;;;6722303;26;20036;-73
2024/04/23 16:05:12;;;;;;;10.00;7.93;;;;;;;;;;6706361;26;20017;-73
2024/04/23 16:08:15;;;;;;;9.32;5.38;;;;;;;;;;6771842;26;20094;-72
2024/04/23 16:11:18;;;;;;;10.65;8.82;;;;;;;;;;6713754;26;20095;-72
2024/04/23 16:14:20;;;;;;;10.93;8.82;;;;;;;;;;6695911;26;20041;-73
2024/04/23 16:17:23;;;;;;;10.43;8.57;;;;;;;;;;6702651;26;20056;-72
2024/04/23 16:20:26;;;;;;;11.18;8.90;;;;;;;;;;6720775;26;20156;-73
2024/04/23 16:23:29;;;;;;;13.60;9.35;;;;;;;;;;6660510;26;19998;-73
2024/04/23 16:26:32;;;;;;;15.63;12.25;;;;;;;;;;6689091;26;20002;-73
2024/04/23 16:29:35;;;;;;;19.45;13.35;;;;;;;;;;6710610;26;20010;-74
2024/04/23 16:32:38;;;;;;;25.83;18.33;;;;;;;;;;6730285;26;20020;-73
2024/04/23 16:35:44;;;;;;;17.48;13.52;;;;;;;;;;6760554;26;20000;-74
2024/04/23 16:38:46;;;;;;;18.90;14.32;;;;;;;;;;6720894;26;20014;-74
2024/04/23 16:41:49;;;;;;;20.17;15.07;;;;;;;;;;6736448;26;20363;-75
2024/04/23 16:44:52;;;;;;;15.48;12.27;;;;;;;;;;6730396;26;20085;-74
2024/04/23 16:47:55;;;;;;;19.75;12.07;;;;;;;;;;6716342;26;20376;-74
2024/04/23 16:50:58;;;;;;;17.58;9.95;;;;;;;;;;6754530;26;20547;-74
2024/04/23 16:54:05;;;;;;;16.65;13.65;;;;;;;;;;6737010;26;20013;-74
2024/04/23 16:57:08;;;;;;;21.98;15.63;;;;;;;;;;6735871;26;19999;-74
2024/04/23 17:00:13;;;;;;;20.58;13.50;;;;;;;;;;6690772;26;20056;-74
2024/04/23 17:03:15;;;;;;;27.23;17.25;;;;;;;;;;6674948;26;20099;-72
2024/04/23 17:06:18;;;;;;;24.20;15.25;;;;;;;;;;6667003;26;20006;-73
2024/04/23 17:09:21;;;;;;;20.13;12.20;;;;;;;;;;6706606;26;20002;-73
2024/04/23 17:12:24;;;;;;;15.95;10.48;;;;;;;;;;6666450;26;20851;-73
2024/04/23 17:15:26;;;;;;;19.00;14.45;;;;;;;;;;6711110;26;20574;-73
2024/04/23 17:18:29;;;;;;;18.05;13.05;;;;;;;;;;6741323;26;20017;-73
2024/04/23 17:21:32;;;;;;;19.98;13.13;;;;;;;;;;6718432;26;20084;-73
2024/04/23 17:24:35;;;;;;;17.90;13.95;;;;;;;;;;6712632;26;20025;-72
2024/04/23 17:27:37;;;;;;;20.20;11.88;;;;;;;;;;6692208;26;20016;-73
2024/04/23 17:30:41;;;;;;;21.80;13.38;;;;;;;;;;6737577;26;20002;-73
2024/04/23 17:33:44;;;;;;;16.50;11.18;;;;;;;;;;6713517;26;20116;-73
2024/04/23 17:36:46;;;;;;;20.70;10.77;;;;;;;;;;6692347;26;20655;-73
2024/04/23 17:39:49;;;;;;;23.80;13.13;;;;;;;;;;6716369;26;20367;-73
2024/04/23 17:42:51;;;;;;;18.38;11.70;;;;;;;;;;6714703;26;20018;-73
2024/04/23 17:46:02;;;;;;;16.77;12.60;;;;;;;;;;6704479;26;20051;-73
2024/04/23 17:49:04;;;;;;;22.75;13.40;;;;;;;;;;6730443;26;20010;-73
2024/04/23 17:52:07;;;;;;;21.13;13.82;;;;;;;;;;6739782;26;20059;-73
2024/04/23 17:55:10;;;;;;;21.50;13.88;;;;;;;;;;6708104;26;20448;-73
2024/04/23 17:58:15;;;;;;;24.02;13.13;;;;;;;;;;6711749;26;20404;-72
2024/04/23 18:01:18;;;;;;;20.85;15.05;;;;;;;;;;6736762;26;20003;-73
2024/04/23 18:04:23;;;;;;;20.88;13.43;;;;;;;;;;6713127;26;20002;-73
2024/04/23 18:07:26;;;;;;;20.48;13.27;;;;;;;;;;6668835;26;20384;-73
2024/04/23 18:10:30;;;;;;;20.20;14.55;;;;;;;;;;6713461;26;20035;-72
2024/04/23 18:13:38;;;;;;;22.10;13.07;;;;;;;;;;6703124;26;20500;-73
2024/04/23 18:16:41;;;;;;;24.92;16.15;;;;;;;;;;6736212;26;20070;-72
2024/04/23 18:19:44;;;;;;;23.65;15.55;;;;;;;;;;6695935;26;20013;-73